sensor_id;sensor_type;location;lat;lon;timestamp;pressure;altitude;pressure_sealevel;temperature;humidity
54042;BME280;41156;51.508;5.406;2023-07-13T00:01:35;101310.03;;;17.09;74.75
54042;BME280;41156;51.508;5.406;2023-07-13T00:04:37;101312.41;;;17.05;75.37
54042;BME280;41156;51.508;5.406;2023-07-13T00:07:38;101318.09;;;17.04;75.38
54042;BME280;41156;51.508;5.406;2023-07-13T00:10:42;101315.28;;;16.98;76.14
54042;BME280;41156;51.508;5.406;2023-07-13T00:13:43;101308.69;;;16.94;76.03
54042;BME280;41156;51.508;5.406;2023-07-13T00:16:44;101309.16;;;16.91;76.39
54042;BME280;41156;51.508;5.406;2023-07-13T00:19:44;101306.69;;;16.90;76.50
54042;BME280;41156;51.508;5.406;2023-07-13T00:22:45;101311.81;;;16.86;76.61
54042;BME280;41156;51.508;5.406;2023-07-13T00:25:46;101311.19;;;16.84;76.67
54042;BME280;41156;51.508;5.406;2023-07-13T00:28:47;101304.81;;;16.78;77.13
54042;BME280;41156;51.508;5.406;2023-07-13T00:31:47;101305.56;;;16.74;77.20
54042;BME280;41156;51.508;5.406;2023-07-13T00:34:47;101311.75;;;16.69;77.80
54042;BME280;41156;51.508;5.406;2023-07-13T00:37:48;101318.25;;;16.68;78.02
54042;BME280;41156;51.508;5.406;2023-07-13T00:40:49;101313.91;;;16.67;78.18
54042;BME280;41156;51.508;5.406;2023-07-13T00:43:49;101316.38;;;16.69;78.73
54042;BME280;41156;51.508;5.406;2023-07-13T00:46:50;101323.16;;;16.66;78.69
54042;BME280;41156;51.508;5.406;2023-07-13T00:49:50;101320.66;;;16.64;78.87
54042;BME280;41156;51.508;5.406;2023-07-13T00:52:53;101319.22;;;16.62;80.80
54042;BME280;41156;51.508;5.406;2023-07-13T00:55:56;101319.97;;;16.57;80.42
54042;BME280;41156;51.508;5.406;2023-07-13T00:58:57;101319.28;;;16.50;80.06
54042;BME280;41156;51.508;5.406;2023-07-13T01:01:57;101308.03;;;16.46;80.26
54042;BME280;41156;51.508;5.406;2023-07-13T01:04:58;101317.06;;;16.47;80.53
54042;BME280;41156;51.508;5.406;2023-07-13T01:07:59;101320.03;;;16.45;80.70
54042;BME280;41156;51.508;5.406;2023-07-13T01:11:00;101316.44;;;16.45;80.87
54042;BME280;41156;51.508;5.406;2023-07-13T01:14:01;101311.00;;;16.45;81.05
54042;BME280;41156;51.508;5.406;2023-07-13T01:17:02;101314.81;;;16.44;81.36
54042;BME280;41156;51.508;5.406;2023-07-13T01:20:03;101320.88;;;16.34;81.66
54042;BME280;41156;51.508;5.406;2023-07-13T01:23:07;101320.66;;;16.36;83.03
54042;BME280;41156;51.508;5.406;2023-07-13T01:26:08;101314.63;;;16.34;82.56
54042;BME280;41156;51.508;5.406;2023-07-13T01:29:08;101320.66;;;16.36;82.46
54042;BME280;41156;51.508;5.406;2023-07-13T01:32:12;101325.25;;;16.35;82.96
54042;BME280;41156;51.508;5.406;2023-07-13T01:35:13;101322.19;;;16.32;83.07
54042;BME280;41156;51.508;5.406;2023-07-13T01:38:15;101322.44;;;16.30;83.29
54042;BME280;41156;51.508;5.406;2023-07-13T01:41:17;101325.91;;;16.25;83.38
54042;BME280;41156;51.508;5.406;2023-07-13T01:44:18;101327.69;;;16.20;84.23
54042;BME280;41156;51.508;5.406;2023-07-13T01:47:18;101329.25;;;16.16;84.09
54042;BME280;41156;51.508;5.406;2023-07-13T01:50:18;101320.97;;;16.11;84.02
54042;BME280;41156;51.508;5.406;2023-07-13T01:53:19;101332.69;;;16.11;85.03
54042;BME280;41156;51.508;5.406;2023-07-13T01:56:19;101333.38;;;16.06;84.63
54042;BME280;41156;51.508;5.406;2023-07-13T01:59:20;101339.09;;;16.05;84.73
54042;BME280;41156;51.508;5.406;2023-07-13T02:02:20;101336.25;;;16.00;85.44
54042;BME280;41156;51.508;5.406;2023-07-13T02:05:20;101335.56;;;15.93;85.72
54042;BME280;41156;51.508;5.406;2023-07-13T02:08:21;101335.56;;;15.93;86.12
54042;BME280;41156;51.508;5.406;2023-07-13T02:11:21;101339.34;;;15.91;86.10
54042;BME280;41156;51.508;5.406;2023-07-13T02:14:22;101342.91;;;15.92;86.26
54042;BME280;41156;51.508;5.406;2023-07-13T02:17:22;101346.44;;;15.93;86.52
54042;BME280;41156;51.508;5.406;2023-07-13T02:20:22;101349.19;;;15.93;86.86
54042;BME280;41156;51.508;5.406;2023-07-13T02:23:23;101344.19;;;15.89;87.11
54042;BME280;41156;51.508;5.406;2023-07-13T02:26:23;101346.47;;;15.81;87.68
54042;BME280;41156;51.508;5.406;2023-07-13T02:29:24;101341.25;;;15.79;87.52
54042;BME280;41156;51.508;5.406;2023-07-13T02:32:25;101348.34;;;15.80;88.48
54042;BME280;41156;51.508;5.406;2023-07-13T02:35:25;101340.03;;;15.75;88.29
54042;BME280;41156;51.508;5.406;2023-07-13T02:38:26;101336.72;;;15.73;88.62
54042;BME280;41156;51.508;5.406;2023-07-13T02:41:27;101345.34;;;15.70;88.65
54042;BME280;41156;51.508;5.406;2023-07-13T02:44:27;101342.63;;;15.70;88.78
54042;BME280;41156;51.508;5.406;2023-07-13T02:47:28;101339.66;;;15.71;88.91
54042;BME280;41156;51.508;5.406;2023-07-13T02:50:28;101344.19;;;15.66;89.59
54042;BME280;41156;51.508;5.406;2023-07-13T02:53:29;101338.72;;;15.66;89.60
54042;BME280;41156;51.508;5.406;2023-07-13T02:56:31;101341.34;;;15.61;89.94
54042;BME280;41156;51.508;5.406;2023-07-13T02:59:31;101340.38;;;15.55;90.11
54042;BME280;41156;51.508;5.406;2023-07-13T03:02:33;101346.06;;;15.53;90.85
54042;BME280;41156;51.508;5.406;2023-07-13T03:05:34;101334.34;;;15.53;90.82
54042;BME280;41156;51.508;5.406;2023-07-13T03:08:34;101346.66;;;15.56;90.57
54042;BME280;41156;51.508;5.406;2023-07-13T03:11:34;101349.00;;;15.52;90.61
54042;BME280;41156;51.508;5.406;2023-07-13T03:14:35;101346.78;;;15.49;91.42
54042;BME280;41156;51.508;5.406;2023-07-13T03:17:35;101353.41;;;15.41;91.76
54042;BME280;41156;51.508;5.406;2023-07-13T03:20:36;101346.91;;;15.42;91.99
54042;BME280;41156;51.508;5.406;2023-07-13T03:23:36;101341.22;;;15.44;91.94
54042;BME280;41156;51.508;5.406;2023-07-13T03:26:38;101339.53;;;15.43;93.42
54042;BME280;41156;51.508;5.406;2023-07-13T03:29:38;101352.34;;;15.42;92.65
54042;BME280;41156;51.508;5.406;2023-07-13T03:32:38;101358.59;;;15.43;93.09
54042;BME280;41156;51.508;5.406;2023-07-13T03:35:40;101361.56;;;15.41;93.90
54042;BME280;41156;51.508;5.406;2023-07-13T03:38:41;101365.84;;;15.37;93.86
54042;BME280;41156;51.508;5.406;2023-07-13T03:41:41;101364.84;;;15.31;93.92
54042;BME280;41156;51.508;5.406;2023-07-13T03:44:42;101364.28;;;15.29;94.53
54042;BME280;41156;51.508;5.406;2023-07-13T03:47:46;101373.72;;;15.27;94.94
54042;BME280;41156;51.508;5.406;2023-07-13T03:50:47;101367.69;;;15.25;95.04
54042;BME280;41156;51.508;5.406;2023-07-13T03:53:48;101371.94;;;15.21;95.30
54042;BME280;41156;51.508;5.406;2023-07-13T03:56:48;101376.78;;;15.18;96.09
54042;BME280;41156;51.508;5.406;2023-07-13T03:59:49;101370.75;;;15.16;99.62
54042;BME280;41156;51.508;5.406;2023-07-13T04:02:49;101384.47;;;15.22;96.60
54042;BME280;41156;51.508;5.406;2023-07-13T04:05:49;101380.13;;;15.21;97.60
54042;BME280;41156;51.508;5.406;2023-07-13T04:08:55;101390.38;;;15.18;98.24
54042;BME280;41156;51.508;5.406;2023-07-13T04:11:56;101390.78;;;15.22;98.65
54042;BME280;41156;51.508;5.406;2023-07-13T04:14:56;101393.75;;;15.32;97.88
54042;BME280;41156;51.508;5.406;2023-07-13T04:17:57;101398.25;;;15.39;98.05
54042;BME280;41156;51.508;5.406;2023-07-13T04:20:57;101399.47;;;15.43;99.28
54042;BME280;41156;51.508;5.406;2023-07-13T04:23:58;101411.66;;;15.52;98.15
54042;BME280;41156;51.508;5.406;2023-07-13T04:26:58;101402.19;;;15.54;98.33
54042;BME280;41156;51.508;5.406;2023-07-13T04:30:00;101412.75;;;15.63;98.89
54042;BME280;41156;51.508;5.406;2023-07-13T04:33:01;101398.19;;;15.69;98.62
54042;BME280;41156;51.508;5.406;2023-07-13T04:36:01;101395.41;;;15.76;100.00
54042;BME280;41156;51.508;5.406;2023-07-13T04:39:02;101404.75;;;15.80;99.53
54042;BME280;41156;51.508;5.406;2023-07-13T04:42:03;101411.50;;;15.89;99.80
54042;BME280;41156;51.508;5.406;2023-07-13T04:45:04;101405.31;;;15.94;100.00
54042;BME280;41156;51.508;5.406;2023-07-13T04:48:05;101415.53;;;15.98;100.00
54042;BME280;41156;51.508;5.406;2023-07-13T04:51:06;101414.94;;;16.08;99.77
54042;BME280;41156;51.508;5.406;2023-07-13T04:54:06;101415.16;;;16.18;99.84
54042;BME280;41156;51.508;5.406;2023-07-13T04:57:08;101416.94;;;16.24;100.00
54042;BME280;41156;51.508;5.406;2023-07-13T05:00:08;101415.03;;;16.25;100.00
54042;BME280;41156;51.508;5.406;2023-07-13T05:03:10;101417.41;;;16.33;100.00
54042;BME280;41156;51.508;5.406;2023-07-13T05:06:10;101420.22;;;16.38;100.00
54042;BME280;41156;51.508;5.406;2023-07-13T05:09:10;101428.63;;;16.49;100.00
54042;BME280;41156;51.508;5.406;2023-07-13T05:12:12;101429.94;;;16.58;100.00
54042;BME280;41156;51.508;5.406;2023-07-13T05:15:13;101422.66;;;16.63;100.00
54042;BME280;41156;51.508;5.406;2023-07-13T05:18:13;101425.53;;;16.69;100.00
54042;BME280;41156;51.508;5.406;2023-07-13T05:21:14;101432.16;;;16.73;100.00
54042;BME280;41156;51.508;5.406;2023-07-13T05:24:14;101436.16;;;16.82;100.00
54042;BME280;41156;51.508;5.406;2023-07-13T05:27:15;101437.34;;;16.86;100.00
54042;BME280;41156;51.508;5.406;2023-07-13T05:30:15;101439.84;;;16.88;100.00
54042;BME280;41156;51.508;5.406;2023-07-13T05:33:16;101446.22;;;16.93;100.00
54042;BME280;41156;51.508;5.406;2023-07-13T05:36:16;101456.44;;;16.98;100.00
54042;BME280;41156;51.508;5.406;2023-07-13T05:39:17;101448.22;;;16.98;100.00
54042;BME280;41156;51.508;5.406;2023-07-13T05:42:17;101455.03;;;16.95;100.00
54042;BME280;41156;51.508;5.406;2023-07-13T05:45:18;101449.66;;;17.00;100.00
54042;BME280;41156;51.508;5.406;2023-07-13T05:48:19;101447.84;;;17.06;100.00
54042;BME280;41156;51.508;5.406;2023-07-13T05:51:19;101453.16;;;17.13;100.00
54042;BME280;41156;51.508;5.406;2023-07-13T05:54:20;101450.78;;;17.16;100.00
54042;BME280;41156;51.508;5.406;2023-07-13T05:57:20;101455.25;;;17.23;100.00
54042;BME280;41156;51.508;5.406;2023-07-13T06:00:21;101465.94;;;17.24;100.00
54042;BME280;41156;51.508;5.406;2023-07-13T06:03:21;101463.31;;;17.29;100.00
54042;BME280;41156;51.508;5.406;2023-07-13T06:06:22;101470.78;;;17.34;100.00
54042;BME280;41156;51.508;5.406;2023-07-13T06:09:22;101473.44;;;17.46;100.00
54042;BME280;41156;51.508;5.406;2023-07-13T06:12:22;101475.03;;;17.59;100.00
54042;BME280;41156;51.508;5.406;2023-07-13T06:15:23;101481.50;;;17.69;100.00
54042;BME280;41156;51.508;5.406;2023-07-13T06:18:23;101481.09;;;17.78;100.00
54042;BME280;41156;51.508;5.406;2023-07-13T06:21:24;101491.78;;;17.79;100.00
54042;BME280;41156;51.508;5.406;2023-07-13T06:24:25;101491.53;;;17.81;100.00
54042;BME280;41156;51.508;5.406;2023-07-13T06:27:25;101490.44;;;17.82;99.90
54042;BME280;41156;51.508;5.406;2023-07-13T06:30:25;101489.72;;;17.86;100.00
54042;BME280;41156;51.508;5.406;2023-07-13T06:33:26;101489.34;;;17.94;99.42
54042;BME280;41156;51.508;5.406;2023-07-13T06:36:27;101491.91;;;18.01;99.61
54042;BME280;41156;51.508;5.406;2023-07-13T06:39:28;101498.53;;;18.05;99.36
54042;BME280;41156;51.508;5.406;2023-07-13T06:42:28;101500.69;;;18.03;99.32
54042;BME280;41156;51.508;5.406;2023-07-13T06:45:29;101495.13;;;17.98;99.45
54042;BME280;41156;51.508;5.406;2023-07-13T06:48:29;101500.91;;;18.02;99.38
54042;BME280;41156;51.508;5.406;2023-07-13T06:51:30;101497.94;;;18.03;99.11
54042;BME280;41156;51.508;5.406;2023-07-13T06:54:30;101504.91;;;18.11;99.36
54042;BME280;41156;51.508;5.406;2023-07-13T06:57:30;101512.94;;;18.18;98.89
54042;BME280;41156;51.508;5.406;2023-07-13T07:00:31;101514.88;;;18.17;99.05
54042;BME280;41156;51.508;5.406;2023-07-13T07:03:32;101507.56;;;18.23;99.32
54042;BME280;41156;51.508;5.406;2023-07-13T07:06:32;101519.38;;;18.28;97.96
54042;BME280;41156;51.508;5.406;2023-07-13T07:09:33;101513.16;;;18.33;98.37
54042;BME280;41156;51.508;5.406;2023-07-13T07:12:33;101510.25;;;18.40;97.88
54042;BME280;41156;51.508;5.406;2023-07-13T07:15:35;101510.94;;;18.47;97.64
54042;BME280;41156;51.508;5.406;2023-07-13T07:18:35;101511.81;;;18.53;97.85
54042;BME280;41156;51.508;5.406;2023-07-13T07:21:36;101507.25;;;18.58;97.19
54042;BME280;41156;51.508;5.406;2023-07-13T07:24:36;101515.88;;;18.67;96.65
54042;BME280;41156;51.508;5.406;2023-07-13T07:27:36;101512.75;;;18.80;97.49
54042;BME280;41156;51.508;5.406;2023-07-13T07:30:37;101522.25;;;18.95;96.42
54042;BME280;41156;51.508;5.406;2023-07-13T07:33:38;101525.22;;;19.10;95.51
54042;BME280;41156;51.508;5.406;2023-07-13T07:36:38;101527.63;;;19.29;95.31
54042;BME280;41156;51.508;5.406;2023-07-13T07:39:39;101525.13;;;19.54;94.92
54042;BME280;41156;51.508;5.406;2023-07-13T07:42:39;101520.31;;;19.67;93.83
54042;BME280;41156;51.508;5.406;2023-07-13T07:45:40;101517.38;;;19.73;93.21
54042;BME280;41156;51.508;5.406;2023-07-13T07:48:40;101520.00;;;19.85;92.90
54042;BME280;41156;51.508;5.406;2023-07-13T07:51:41;101518.25;;;20.11;91.89
54042;BME280;41156;51.508;5.406;2023-07-13T07:54:41;101522.81;;;20.33;90.15
54042;BME280;41156;51.508;5.406;2023-07-13T07:57:42;101523.16;;;20.42;88.99
54042;BME280;41156;51.508;5.406;2023-07-13T08:00:42;101522.03;;;20.38;89.16
54042;BME280;41156;51.508;5.406;2023-07-13T08:03:42;101523.16;;;20.42;88.14
54042;BME280;41156;51.508;5.406;2023-07-13T08:06:43;101527.81;;;20.41;88.60
54042;BME280;41156;51.508;5.406;2023-07-13T08:09:43;101529.22;;;20.44;88.31
54042;BME280;41156;51.508;5.406;2023-07-13T08:12:44;101535.28;;;20.51;87.83
54042;BME280;41156;51.508;5.406;2023-07-13T08:15:46;101536.25;;;20.67;87.12
54042;BME280;41156;51.508;5.406;2023-07-13T08:18:46;101538.50;;;20.80;86.92
54042;BME280;41156;51.508;5.406;2023-07-13T08:21:46;101533.09;;;20.96;85.83
54042;BME280;41156;51.508;5.406;2023-07-13T08:24:48;101536.84;;;21.48;85.35
54042;BME280;41156;51.508;5.406;2023-07-13T08:27:55;101527.56;;;21.90;83.86
54042;BME280;41156;51.508;5.406;2023-07-13T08:31:04;101526.44;;;22.11;79.62
54042;BME280;41156;51.508;5.406;2023-07-13T08:34:04;101540.53;;;22.30;80.66
54042;BME280;41156;51.508;5.406;2023-07-13T08:37:05;101536.66;;;22.31;79.91
54042;BME280;41156;51.508;5.406;2023-07-13T08:40:09;101530.84;;;22.48;79.11
54042;BME280;41156;51.508;5.406;2023-07-13T08:43:17;101533.03;;;22.46;76.98
54042;BME280;41156;51.508;5.406;2023-07-13T08:46:25;101526.47;;;22.27;77.17
54042;BME280;41156;51.508;5.406;2023-07-13T08:49:26;101528.38;;;22.06;77.80
54042;BME280;41156;51.508;5.406;2023-07-13T08:55:33;101531.41;;;21.89;75.68
54042;BME280;41156;51.508;5.406;2023-07-13T08:58:36;101527.00;;;21.77;77.02
54042;BME280;41156;51.508;5.406;2023-07-13T09:05:25;101527.31;;;22.07;72.15
54042;BME280;41156;51.508;5.406;2023-07-13T09:14:45;101522.78;;;23.38;71.34
54042;BME280;41156;51.508;5.406;2023-07-13T09:17:51;101531.00;;;23.53;70.85
54042;BME280;41156;51.508;5.406;2023-07-13T09:21:02;101530.00;;;23.34;68.08
54042;BME280;41156;51.508;5.406;2023-07-13T09:27:46;101518.09;;;23.43;69.47
54042;BME280;41156;51.508;5.406;2023-07-13T09:33:57;101515.31;;;23.88;66.45
54042;BME280;41156;51.508;5.406;2023-07-13T09:36:58;101520.69;;;23.64;63.97
54042;BME280;41156;51.508;5.406;2023-07-13T09:39:59;101522.09;;;23.61;65.37
54042;BME280;41156;51.508;5.406;2023-07-13T09:43:03;101526.63;;;23.47;64.42
54042;BME280;41156;51.508;5.406;2023-07-13T09:46:20;101522.78;;;23.38;63.03
54042;BME280;41156;51.508;5.406;2023-07-13T09:49:26;101524.59;;;23.58;63.37
54042;BME280;41156;51.508;5.406;2023-07-13T09:52:28;101523.41;;;24.09;65.12
54042;BME280;41156;51.508;5.406;2023-07-13T09:55:40;101525.78;;;24.50;62.98
54042;BME280;41156;51.508;5.406;2023-07-13T09:58:40;101524.63;;;24.56;62.80
54042;BME280;41156;51.508;5.406;2023-07-13T10:01:43;101525.28;;;24.72;62.38
54042;BME280;41156;51.508;5.406;2023-07-13T10:04:43;101525.81;;;24.45;62.09
54042;BME280;41156;51.508;5.406;2023-07-13T10:07:44;101528.06;;;24.43;61.78
54042;BME280;41156;51.508;5.406;2023-07-13T10:10:46;101527.56;;;24.06;62.34
54042;BME280;41156;51.508;5.406;2023-07-13T10:14:01;101529.66;;;23.90;61.64
54042;BME280;41156;51.508;5.406;2023-07-13T10:17:04;101526.84;;;23.95;60.70
54042;BME280;41156;51.508;5.406;2023-07-13T10:20:06;101527.19;;;23.89;60.86
54042;BME280;41156;51.508;5.406;2023-07-13T10:23:15;101528.03;;;23.84;60.91
54042;BME280;41156;51.508;5.406;2023-07-13T10:26:29;101527.78;;;24.15;59.89
54042;BME280;41156;51.508;5.406;2023-07-13T10:29:36;101527.09;;;24.28;57.73
54042;BME280;41156;51.508;5.406;2023-07-13T10:32:38;101531.22;;;24.31;59.53
54042;BME280;41156;51.508;5.406;2023-07-13T10:35:42;101535.19;;;24.19;58.56
54042;BME280;41156;51.508;5.406;2023-07-13T10:38:43;101531.22;;;24.01;60.08
54042;BME280;41156;51.508;5.406;2023-07-13T10:41:50;101532.75;;;23.83;60.05
54042;BME280;41156;51.508;5.406;2023-07-13T10:44:52;101551.00;;;23.69;60.98
54042;BME280;41156;51.508;5.406;2023-07-13T10:47:53;101561.44;;;23.33;62.42
54042;BME280;41156;51.508;5.406;2023-07-13T10:50:56;101571.53;;;22.82;64.73
54042;BME280;41156;51.508;5.406;2023-07-13T10:57:47;101572.44;;;22.42;67.78
54042;BME280;41156;51.508;5.406;2023-07-13T11:04:12;101565.81;;;22.53;69.62
54042;BME280;41156;51.508;5.406;2023-07-13T11:07:20;101573.19;;;22.88;70.55
54042;BME280;41156;51.508;5.406;2023-07-13T11:16:48;101556.06;;;24.31;64.93
54042;BME280;41156;51.508;5.406;2023-07-13T11:19:51;101550.44;;;24.70;63.54
54042;BME280;41156;51.508;5.406;2023-07-13T11:29:41;101564.91;;;24.62;63.23
54042;BME280;41156;51.508;5.406;2023-07-13T11:32:42;101552.28;;;24.80;62.29
54042;BME280;41156;51.508;5.406;2023-07-13T11:36:15;101547.38;;;24.96;60.18
54042;BME280;41156;51.508;5.406;2023-07-13T11:39:42;101542.88;;;25.24;57.16
54042;BME280;41156;51.508;5.406;2023-07-13T11:42:44;101552.03;;;25.63;59.01
54042;BME280;41156;51.508;5.406;2023-07-13T11:45:45;101558.72;;;26.14;58.32
54042;BME280;41156;51.508;5.406;2023-07-13T11:48:46;101554.88;;;25.96;56.17
54042;BME280;41156;51.508;5.406;2023-07-13T11:51:48;101550.41;;;25.62;55.07
54042;BME280;41156;51.508;5.406;2023-07-13T11:54:55;101564.97;;;25.05;54.75
54042;BME280;41156;51.508;5.406;2023-07-13T11:57:58;101552.81;;;24.82;57.15
54042;BME280;41156;51.508;5.406;2023-07-13T12:01:01;101557.97;;;24.65;56.52
54042;BME280;41156;51.508;5.406;2023-07-13T12:04:04;101560.47;;;24.61;57.67
54042;BME280;41156;51.508;5.406;2023-07-13T12:07:11;101566.00;;;24.61;57.59
54042;BME280;41156;51.508;5.406;2023-07-13T12:13:18;101545.47;;;25.40;56.03
54042;BME280;41156;51.508;5.406;2023-07-13T12:16:32;101552.66;;;25.60;54.64
54042;BME280;41156;51.508;5.406;2023-07-13T12:19:33;101553.97;;;25.62;55.33
54042;BME280;41156;51.508;5.406;2023-07-13T12:22:34;101551.88;;;25.54;55.31
54042;BME280;41156;51.508;5.406;2023-07-13T12:25:34;101552.19;;;25.72;55.36
54042;BME280;41156;51.508;5.406;2023-07-13T12:31:41;101548.75;;;26.46;53.00
54042;BME280;41156;51.508;5.406;2023-07-13T12:35:03;101556.50;;;26.76;49.29
54042;BME280;41156;51.508;5.406;2023-07-13T12:38:10;101552.06;;;26.62;50.69
54042;BME280;41156;51.508;5.406;2023-07-13T12:41:10;101559.72;;;26.37;52.45
54042;BME280;41156;51.508;5.406;2023-07-13T12:44:13;101560.16;;;26.11;50.72
54042;BME280;41156;51.508;5.406;2023-07-13T12:47:14;101560.69;;;25.94;51.54
54042;BME280;41156;51.508;5.406;2023-07-13T12:50:18;101566.84;;;25.72;51.19
54042;BME280;41156;51.508;5.406;2023-07-13T12:53:23;101578.03;;;25.43;51.83
54042;BME280;41156;51.508;5.406;2023-07-13T12:56:26;101572.25;;;24.96;53.15
54042;BME280;41156;51.508;5.406;2023-07-13T12:59:30;101586.78;;;24.59;54.26
54042;BME280;41156;51.508;5.406;2023-07-13T13:02:34;101578.22;;;24.26;54.11
54042;BME280;41156;51.508;5.406;2023-07-13T13:05:35;101587.41;;;24.16;54.24
54042;BME280;41156;51.508;5.406;2023-07-13T13:08:37;101589.19;;;24.01;54.24
54042;BME280;41156;51.508;5.406;2023-07-13T13:11:41;101583.16;;;23.94;54.79
54042;BME280;41156;51.508;5.406;2023-07-13T13:14:42;101590.69;;;23.78;55.23
54042;BME280;41156;51.508;5.406;2023-07-13T13:17:43;101596.75;;;23.80;55.22
54042;BME280;41156;51.508;5.406;2023-07-13T13:20:44;101602.09;;;23.61;56.20
54042;BME280;41156;51.508;5.406;2023-07-13T13:23:46;101599.81;;;23.74;56.58
54042;BME280;41156;51.508;5.406;2023-07-13T13:26:47;101596.50;;;23.82;56.09
54042;BME280;41156;51.508;5.406;2023-07-13T13:29:51;101597.56;;;23.86;54.80
54042;BME280;41156;51.508;5.406;2023-07-13T13:32:53;101602.66;;;24.03;55.73
54042;BME280;41156;51.508;5.406;2023-07-13T13:35:53;101601.78;;;24.13;55.53
54042;BME280;41156;51.508;5.406;2023-07-13T13:38:54;101605.34;;;24.18;55.50
54042;BME280;41156;51.508;5.406;2023-07-13T13:41:54;101612.81;;;24.13;55.88
54042;BME280;41156;51.508;5.406;2023-07-13T13:44:54;101617.53;;;24.12;55.59
54042;BME280;41156;51.508;5.406;2023-07-13T13:47:57;101611.22;;;24.07;56.01
54042;BME280;41156;51.508;5.406;2023-07-13T13:50:59;101611.28;;;24.01;55.92
54042;BME280;41156;51.508;5.406;2023-07-13T13:54:00;101623.97;;;23.97;56.20
54042;BME280;41156;51.508;5.406;2023-07-13T13:57:02;101613.88;;;23.82;56.38
54042;BME280;41156;51.508;5.406;2023-07-13T14:00:03;101615.81;;;23.77;56.53
54042;BME280;41156;51.508;5.406;2023-07-13T14:03:04;101619.91;;;23.79;56.57
54042;BME280;41156;51.508;5.406;2023-07-13T14:06:11;101621.38;;;23.72;56.46
54042;BME280;41156;51.508;5.406;2023-07-13T14:09:13;101624.16;;;23.61;56.86
54042;BME280;41156;51.508;5.406;2023-07-13T14:12:15;101620.28;;;23.68;56.85
54042;BME280;41156;51.508;5.406;2023-07-13T14:15:20;101621.34;;;23.77;56.80
54042;BME280;41156;51.508;5.406;2023-07-13T14:18:20;101630.13;;;23.84;57.01
54042;BME280;41156;51.508;5.406;2023-07-13T14:21:21;101626.84;;;23.82;56.65
54042;BME280;41156;51.508;5.406;2023-07-13T14:24:23;101626.28;;;23.85;56.69
54042;BME280;41156;51.508;5.406;2023-07-13T14:27:24;101627.56;;;23.98;56.32
54042;BME280;41156;51.508;5.406;2023-07-13T14:30:25;101618.56;;;24.22;56.27
54042;BME280;41156;51.508;5.406;2023-07-13T14:33:25;101620.63;;;24.40;55.76
54042;BME280;41156;51.508;5.406;2023-07-13T14:36:31;101622.88;;;24.67;55.50
54042;BME280;41156;51.508;5.406;2023-07-13T14:39:32;101623.34;;;24.74;55.60
54042;BME280;41156;51.508;5.406;2023-07-13T14:42:32;101620.19;;;24.86;55.68
54042;BME280;41156;51.508;5.406;2023-07-13T14:45:33;101625.28;;;24.74;56.47
54042;BME280;41156;51.508;5.406;2023-07-13T14:48:34;101620.06;;;24.72;57.02
54042;BME280;41156;51.508;5.406;2023-07-13T14:51:34;101616.00;;;24.65;56.69
54042;BME280;41156;51.508;5.406;2023-07-13T14:54:35;101615.97;;;24.70;57.10
54042;BME280;41156;51.508;5.406;2023-07-13T14:57:35;101613.44;;;24.73;57.19
54042;BME280;41156;51.508;5.406;2023-07-13T15:00:36;101615.78;;;24.56;57.34
54042;BME280;41156;51.508;5.406;2023-07-13T15:03:41;101618.16;;;24.38;57.79
54042;BME280;41156;51.508;5.406;2023-07-13T15:07:13;101623.25;;;24.21;57.91
54042;BME280;41156;51.508;5.406;2023-07-13T15:10:21;101612.31;;;24.06;58.30
54042;BME280;41156;51.508;5.406;2023-07-13T15:13:21;101619.06;;;23.89;58.49
54042;BME280;41156;51.508;5.406;2023-07-13T15:16:25;101615.28;;;23.70;59.73
54042;BME280;41156;51.508;5.406;2023-07-13T15:19:26;101606.75;;;23.66;60.38
54042;BME280;41156;51.508;5.406;2023-07-13T15:22:26;101611.97;;;23.73;59.70
54042;BME280;41156;51.508;5.406;2023-07-13T15:25:29;101617.03;;;23.55;59.92
54042;BME280;41156;51.508;5.406;2023-07-13T15:28:30;101621.47;;;23.46;60.29
54042;BME280;41156;51.508;5.406;2023-07-13T15:31:31;101622.59;;;23.50;60.58
54042;BME280;41156;51.508;5.406;2023-07-13T15:34:32;101620.63;;;23.56;60.64
54042;BME280;41156;51.508;5.406;2023-07-13T15:37:33;101608.13;;;23.69;60.56
54042;BME280;41156;51.508;5.406;2023-07-13T15:40:33;101616.34;;;23.84;60.57
54042;BME280;41156;51.508;5.406;2023-07-13T15:43:34;101610.00;;;24.23;60.49
54042;BME280;41156;51.508;5.406;2023-07-13T15:46:34;101610.34;;;24.46;59.29
54042;BME280;41156;51.508;5.406;2023-07-13T15:49:35;101599.09;;;24.37;59.07
54042;BME280;41156;51.508;5.406;2023-07-13T15:52:35;101606.16;;;24.19;59.24
54042;BME280;41156;51.508;5.406;2023-07-13T15:55:38;101608.25;;;24.32;59.14
54042;BME280;41156;51.508;5.406;2023-07-13T15:58:39;101605.16;;;24.39;58.83
54042;BME280;41156;51.508;5.406;2023-07-13T16:01:40;101593.53;;;24.42;58.44
54042;BME280;41156;51.508;5.406;2023-07-13T16:04:42;101600.19;;;24.36;57.74
54042;BME280;41156;51.508;5.406;2023-07-13T16:07:47;101604.44;;;24.28;58.10
54042;BME280;41156;51.508;5.406;2023-07-13T16:10:47;101601.41;;;24.25;58.29
54042;BME280;41156;51.508;5.406;2023-07-13T16:13:48;101608.06;;;24.24;58.59
54042;BME280;41156;51.508;5.406;2023-07-13T16:16:55;101612.25;;;24.16;58.32
54042;BME280;41156;51.508;5.406;2023-07-13T16:19:55;101614.56;;;24.04;58.53
54042;BME280;41156;51.508;5.406;2023-07-13T16:22:56;101617.53;;;24.12;58.29
54042;BME280;41156;51.508;5.406;2023-07-13T16:25:56;101610.44;;;24.35;57.38
54042;BME280;41156;51.508;5.406;2023-07-13T16:28:58;101617.41;;;24.62;56.08
54042;BME280;41156;51.508;5.406;2023-07-13T16:32:11;101617.00;;;24.39;55.05
54042;BME280;41156;51.508;5.406;2023-07-13T16:35:12;101615.22;;;24.25;56.64